Time,TemperatureF,DewpointF,PressureIn,WindDirection,WindDirectionDegrees,WindSpeedMPH,WindSpeedGustMPH,Humidity,HourlyPrecipIn,Conditions,Clouds,dailyrainin,SolarRadiationWatts/m^2,SoftwareType,DateUTC
2013-06-16 00:00:00,69.2,44.0,29.77,WNW,290,0.0,-999.0,30,-99.99,,,0.00,0.0,cwc,2013-06-16 06:00:00,
2013-06-16 00:05:00,69.0,44.2,29.77,WNW,290,0.0,-999.0,31,-99.99,,,0.00,0.0,cwc,2013-06-16 06:05:00,
2013-06-16 00:10:00,68.9,44.1,29.77,WNW,290,0.0,-999.0,31,-99.99,,,0.00,0.0,cwc,2013-06-16 06:10:00,
2013-06-16 00:15:00,68.7,43.5,29.77,WNW,290,0.0,-999.0,30,-99.99,,,0.00,0.0,cwc,2013-06-16 06:15:00,
2013-06-16 00:20:00,68.4,43.2,29.77,WNW,290,2.0,-999.0,30,-99.99,,,0.00,0.0,cwc,2013-06-16 06:20:00,
2013-06-16 00:25:00,68.2,43.4,29.77,WNW,291,3.0,-999.0,31,-99.99,,,0.00,0.0,cwc,2013-06-16 06:25:00,
2013-06-16 00:30:00,67.9,43.4,29.76,WNW,291,1.0,-999.0,32,-99.99,,,0.00,0.0,cwc,2013-06-16 06:30:00,
2013-06-16 00:35:00,67.7,43.2,29.76,WNW,290,1.0,-999.0,32,-99.99,,,0.00,0.0,cwc,2013-06-16 06:35:00,
2013-06-16 00:40:00,67.6,42.8,29.75,WNW,291,0.0,-999.0,31,-99.99,,,0.00,0.0,cwc,2013-06-16 06:40:00,
2013-06-16 00:45:00,67.5,43.0,29.75,WNW,291,0.0,-999.0,32,-99.99,,,0.00,0.0,cwc,2013-06-16 06:45:00,
2013-06-16 00:50:00,67.5,43.0,29.75,WNW,290,0.0,-999.0,32,-99.99,,,0.00,0.0,cwc,2013-06-16 06:50:00,
2013-06-16 00:55:00,67.2,42.7,29.75,WNW,290,2.0,-999.0,32,-99.99,,,0.00,0.0,cwc,2013-06-16 06:55:00,
2013-06-16 01:00:00,66.9,42.4,29.75,WNW,290,2.0,-999.0,32,-99.99,,,0.00,0.0,cwc,2013-06-16 07:00:00,
2013-06-16 01:05:00,66.8,42.3,29.75,WNW,290,1.0,-999.0,32,-99.99,,,0.00,0.0,cwc,2013-06-16 07:05:00,
2013-06-16 01:10:00,66.8,42.3,29.75,WNW,290,0.0,-999.0,32,-99.99,,,0.00,0.0,cwc,2013-06-16 07:10:00,
2013-06-16 01:15:00,66.7,42.2,29.74,WNW,290,2.0,-999.0,32,-99.99,,,0.00,0.0,cwc,2013-06-16 07:15:00,
2013-06-16 01:20:00,66.7,42.2,29.74,WNW,290,0.0,-999.0,32,-99.99,,,0.00,0.0,cwc,2013-06-16 07:20:00,
2013-06-16 01:25:00,66.8,42.3,29.74,WNW,290,1.0,-999.0,32,-99.99,,,0.00,0.0,cwc,2013-06-16 07:25:00,
2013-06-16 01:30:00,66.9,42.4,29.74,WNW,290,2.0,-999.0,32,-99.99,,,0.00,0.0,cwc,2013-06-16 07:30:00,
2013-06-16 01:35:00,67.1,43.0,29.74,WNW,291,2.0,-999.0,33,-99.99,,,0.00,0.0,cwc,2013-06-16 07:35:00,
2013-06-16 01:40:00,67.3,42.5,29.74,WNW,291,0.0,-999.0,31,-99.99,,,0.00,0.0,cwc,2013-06-16 07:40:00,
2013-06-16 01:45:00,67.6,43.1,29.74,NW,307,3.0,-999.0,32,-99.99,,,0.00,0.0,cwc,2013-06-16 07:45:00,
2013-06-16 01:50:00,67.6,42.8,29.74,NNW,336,4.0,-999.0,31,-99.99,,,0.00,0.0,cwc,2013-06-16 07:50:00,
2013-06-16 01:55:00,67.8,43.0,29.74,North,5,3.0,-999.0,31,-99.99,,,0.00,0.0,cwc,2013-06-16 07:55:00,
2013-06-16 02:00:00,67.9,43.1,29.74,North,5,0.0,-999.0,31,-99.99,,,0.00,0.0,cwc,2013-06-16 08:00:00,
2013-06-16 02:05:00,67.9,43.1,29.74,North,5,0.0,-999.0,31,-99.99,,,0.00,0.0,cwc,2013-06-16 08:05:00,
2013-06-16 02:10:00,68.0,43.2,29.74,North,360,0.0,-999.0,31,-99.99,,,0.00,0.0,cwc,2013-06-16 08:10:00,
2013-06-16 02:15:00,68.0,43.2,29.73,North,360,3.0,-999.0,31,-99.99,,,0.00,0.0,cwc,2013-06-16 08:15:00,
2013-06-16 02:20:00,67.4,42.6,29.74,North,5,3.0,-999.0,31,-99.99,,,0.00,0.0,cwc,2013-06-16 08:20:00,
2013-06-16 02:25:00,66.8,42.3,29.73,North,5,4.0,-999.0,32,-99.99,,,0.00,0.0,cwc,2013-06-16 08:25:00,
2013-06-16 02:30:00,66.5,42.0,29.74,North,5,2.0,-999.0,32,-99.99,,,0.00,0.0,cwc,2013-06-16 08:30:00,
2013-06-16 02:35:00,66.4,41.9,29.73,North,360,0.0,-999.0,32,-99.99,,,0.00,0.0,cwc,2013-06-16 08:35:00,
2013-06-16 02:40:00,66.2,41.7,29.73,North,360,0.0,-999.0,32,-99.99,,,0.00,0.0,cwc,2013-06-16 08:40:00,
2013-06-16 02:45:00,65.9,41.8,29.74,North,5,0.0,-999.0,33,-99.99,,,0.00,0.0,cwc,2013-06-16 08:45:00,
2013-06-16 02:50:00,65.6,41.5,29.74,North,360,0.0,-999.0,33,-99.99,,,0.00,0.0,cwc,2013-06-16 08:50:00,
2013-06-16 02:55:00,65.3,41.2,29.74,North,360,3.0,-999.0,33,-99.99,,,0.00,0.0,cwc,2013-06-16 08:55:00,
2013-06-16 03:00:00,64.9,40.8,29.74,North,5,1.0,-999.0,33,-99.99,,,0.00,0.0,cwc,2013-06-16 09:00:00,
2013-06-16 03:10:00,64.7,40.9,29.75,North,360,1.0,-999.0,34,-99.99,,,0.00,0.0,cwc,2013-06-16 09:10:00,
2013-06-16 03:15:00,64.4,40.3,29.74,North,5,0.0,-999.0,33,-99.99,,,0.00,0.0,cwc,2013-06-16 09:15:00,
2013-06-16 03:20:00,64.3,40.5,29.74,North,5,0.0,-999.0,34,-99.99,,,0.00,0.0,cwc,2013-06-16 09:20:00,
2013-06-16 03:25:00,64.1,40.3,29.74,North,5,0.0,-999.0,34,-99.99,,,0.00,0.0,cwc,2013-06-16 09:25:00,
2013-06-16 03:30:00,64.1,40.7,29.74,North,360,0.0,-999.0,35,-99.99,,,0.00,0.0,cwc,2013-06-16 09:30:00,
2013-06-16 03:35:00,64.1,40.7,29.74,North,5,0.0,-999.0,35,-99.99,,,0.00,0.0,cwc,2013-06-16 09:35:00,
2013-06-16 03:40:00,64.1,40.3,29.74,North,5,0.0,-999.0,34,-99.99,,,0.00,0.0,cwc,2013-06-16 09:40:00,
2013-06-16 03:45:00,64.0,41.3,29.74,North,5,0.0,-999.0,37,-99.99,,,0.00,0.0,cwc,2013-06-16 09:45:00,
2013-06-16 03:50:00,63.7,41.0,29.74,North,360,0.0,-999.0,37,-99.99,,,0.00,0.0,cwc,2013-06-16 09:50:00,
2013-06-16 03:55:00,63.2,40.2,29.74,North,5,0.0,-999.0,36,-99.99,,,0.00,0.0,cwc,2013-06-16 09:55:00,
2013-06-16 04:00:00,62.9,39.9,29.74,North,5,0.0,-999.0,36,-99.99,,,0.00,0.0,cwc,2013-06-16 10:00:00,
2013-06-16 04:05:00,62.6,39.6,29.74,North,5,1.0,-999.0,36,-99.99,,,0.00,0.0,cwc,2013-06-16 10:05:00,
2013-06-16 04:10:00,62.3,39.3,29.74,North,360,0.0,-999.0,36,-99.99,,,0.00,0.0,cwc,2013-06-16 10:10:00,
2013-06-16 04:15:00,62.3,39.3,29.74,North,5,0.0,-999.0,36,-99.99,,,0.00,0.0,cwc,2013-06-16 10:15:00,
2013-06-16 04:20:00,62.1,39.1,29.74,North,5,0.0,-999.0,36,-99.99,,,0.00,0.0,cwc,2013-06-16 10:20:00,
2013-06-16 04:25:00,61.8,38.8,29.73,North,360,2.0,-999.0,36,-99.99,,,0.00,0.0,cwc,2013-06-16 10:25:00,
2013-06-16 04:30:00,61.5,38.8,29.74,North,5,0.0,-999.0,37,-99.99,,,0.00,0.0,cwc,2013-06-16 10:30:00,
2013-06-16 04:35:00,61.3,38.6,29.74,North,5,0.0,-999.0,37,-99.99,,,0.00,0.0,cwc,2013-06-16 10:35:00,
2013-06-16 04:40:00,60.7,38.0,29.74,North,5,2.0,-999.0,37,-99.99,,,0.00,0.0,cwc,2013-06-16 10:40:00,
2013-06-16 04:45:00,60.3,38.0,29.74,North,360,0.0,-999.0,38,-99.99,,,0.00,0.0,cwc,2013-06-16 10:45:00,
2013-06-16 04:50:00,59.9,37.9,29.74,North,5,3.0,-999.0,39,-99.99,,,0.00,0.0,cwc,2013-06-16 10:50:00,
2013-06-16 04:55:00,59.1,37.1,29.74,North,5,2.0,-999.0,39,-99.99,,,0.00,0.0,cwc,2013-06-16 10:55:00,
2013-06-16 05:00:00,59.0,37.0,29.74,WNW,302,3.0,-999.0,39,-99.99,,,0.00,0.0,cwc,2013-06-16 11:00:00,
2013-06-16 05:05:00,59.0,37.0,29.75,WNW,302,2.0,-999.0,39,-99.99,,,0.00,0.0,cwc,2013-06-16 11:05:00,
2013-06-16 05:10:00,58.9,36.9,29.74,WNW,302,1.0,-999.0,39,-99.99,,,0.00,0.0,cwc,2013-06-16 11:10:00,
2013-06-16 05:15:00,58.7,36.7,29.74,WNW,302,0.0,-999.0,39,-99.99,,,0.00,0.0,cwc,2013-06-16 11:15:00,
2013-06-16 05:20:00,58.4,36.4,29.74,WNW,302,0.0,-999.0,39,-99.99,,,0.00,0.0,cwc,2013-06-16 11:20:00,
2013-06-16 05:25:00,58.2,36.2,29.74,WNW,302,0.0,-999.0,39,-99.99,,,0.00,0.0,cwc,2013-06-16 11:25:00,
2013-06-16 05:30:00,58.4,37.2,29.74,WNW,302,0.0,-999.0,41,-99.99,,,0.00,0.0,cwc,2013-06-16 11:30:00,
2013-06-16 05:35:00,58.4,36.4,29.75,WNW,302,3.0,-999.0,39,-99.99,,,0.00,0.0,cwc,2013-06-16 11:35:00,
2013-06-16 05:40:00,57.8,36.2,29.75,WNW,302,1.0,-999.0,40,-99.99,,,0.00,0.0,cwc,2013-06-16 11:40:00,
2013-06-16 05:45:00,57.5,35.9,29.75,WNW,302,0.0,-999.0,40,-99.99,,,0.00,0.0,cwc,2013-06-16 11:45:00,
2013-06-16 05:50:00,57.4,35.8,29.75,WNW,302,2.0,-999.0,40,-99.99,,,0.00,0.0,cwc,2013-06-16 11:50:00,
2013-06-16 05:55:00,57.1,35.5,29.75,WNW,302,2.0,-999.0,40,-99.99,,,0.00,0.0,cwc,2013-06-16 11:55:00,
2013-06-16 06:00:00,56.7,35.8,29.76,WNW,302,0.0,-999.0,42,-99.99,,,0.00,5.0,cwc,2013-06-16 12:00:00,
2013-06-16 06:05:00,56.4,35.2,29.76,WNW,302,2.0,-999.0,41,-99.99,,,0.00,9.0,cwc,2013-06-16 12:05:00,
2013-06-16 06:10:00,55.9,35.0,29.76,WNW,302,0.0,-999.0,42,-99.99,,,0.00,12.0,cwc,2013-06-16 12:10:00,
2013-06-16 06:15:00,55.6,34.7,29.76,WNW,302,0.0,-999.0,42,-99.99,,,0.00,14.0,cwc,2013-06-16 12:15:00,
2013-06-16 06:20:00,55.5,34.6,29.76,WNW,302,0.0,-999.0,42,-99.99,,,0.00,39.0,cwc,2013-06-16 12:20:00,
2013-06-16 06:25:00,55.4,34.9,29.76,WNW,302,2.0,-999.0,43,-99.99,,,0.00,42.0,cwc,2013-06-16 12:25:00,
2013-06-16 06:30:00,55.4,35.2,29.76,WNW,302,0.0,-999.0,44,-99.99,,,0.00,67.0,cwc,2013-06-16 12:30:00,
2013-06-16 06:35:00,55.6,36.2,29.76,WNW,302,0.0,-999.0,46,-99.99,,,0.00,83.0,cwc,2013-06-16 12:35:00,
2013-06-16 06:40:00,56.2,36.4,29.76,WNW,302,0.0,-999.0,45,-99.99,,,0.00,97.0,cwc,2013-06-16 12:40:00,
2013-06-16 06:45:00,57.1,37.3,29.77,WNW,302,0.0,-999.0,45,-99.99,,,0.00,111.0,cwc,2013-06-16 12:45:00,
2013-06-16 06:50:00,57.8,37.6,29.77,WNW,302,0.0,-999.0,44,-99.99,,,0.00,132.0,cwc,2013-06-16 12:50:00,
2013-06-16 06:55:00,58.6,38.4,29.77,WNW,302,0.0,-999.0,44,-99.99,,,0.00,153.0,cwc,2013-06-16 12:55:00,
2013-06-16 07:00:00,59.4,38.9,29.77,WNW,302,0.0,-999.0,43,-99.99,,,0.00,172.0,cwc,2013-06-16 13:00:00,
2013-06-16 07:05:00,60.4,40.2,29.77,WNW,302,0.0,-999.0,44,-99.99,,,0.00,192.0,cwc,2013-06-16 13:05:00,
2013-06-16 07:10:00,61.1,40.2,29.77,WNW,302,0.0,-999.0,42,-99.99,,,0.00,213.0,cwc,2013-06-16 13:10:00,
2013-06-16 07:15:00,61.7,40.8,29.77,WNW,302,0.0,-999.0,42,-99.99,,,0.00,229.0,cwc,2013-06-16 13:15:00,
2013-06-16 07:20:00,62.3,41.4,29.77,WNW,302,0.0,-999.0,42,-99.99,,,0.00,244.0,cwc,2013-06-16 13:20:00,
2013-06-16 07:25:00,63.0,41.4,29.77,WNW,302,0.0,-999.0,40,-99.99,,,0.00,262.0,cwc,2013-06-16 13:25:00,
2013-06-16 07:30:00,63.5,41.9,29.77,WNW,302,0.0,-999.0,40,-99.99,,,0.00,279.0,cwc,2013-06-16 13:30:00,
2013-06-16 07:35:00,64.0,42.0,29.77,WNW,302,0.0,-999.0,39,-99.99,,,0.00,294.0,cwc,2013-06-16 13:35:00,
2013-06-16 07:40:00,64.7,42.7,29.77,WNW,302,0.0,-999.0,39,-99.99,,,0.00,313.0,cwc,2013-06-16 13:40:00,
2013-06-16 07:45:00,65.6,43.3,29.77,WNW,302,0.0,-999.0,38,-99.99,,,0.00,330.0,cwc,2013-06-16 13:45:00,
2013-06-16 07:50:00,66.4,43.7,29.77,WNW,303,0.0,-999.0,37,-99.99,,,0.00,343.0,cwc,2013-06-16 13:50:00,
2013-06-16 07:55:00,67.1,44.1,29.77,WNW,303,0.0,-999.0,36,-99.99,,,0.00,362.0,cwc,2013-06-16 13:55:00,
2013-06-16 08:00:00,67.7,44.7,29.77,WNW,303,0.0,-999.0,36,-99.99,,,0.00,380.0,cwc,2013-06-16 14:00:00,
2013-06-16 08:05:00,68.5,45.1,29.77,WNW,299,0.0,-999.0,35,-99.99,,,0.00,396.0,cwc,2013-06-16 14:05:00,
2013-06-16 08:10:00,69.0,45.2,29.77,WNW,299,0.0,-999.0,34,-99.99,,,0.00,410.0,cwc,2013-06-16 14:10:00,
2013-06-16 08:15:00,69.7,46.3,29.77,WNW,299,0.0,-999.0,35,-99.99,,,0.00,431.0,cwc,2013-06-16 14:15:00,
2013-06-16 08:20:00,70.6,46.8,29.76,WNW,299,1.0,-999.0,34,-99.99,,,0.00,446.0,cwc,2013-06-16 14:20:00,
2013-06-16 08:25:00,71.3,47.2,29.76,WNW,299,2.0,-999.0,33,-99.99,,,0.00,462.0,cwc,2013-06-16 14:25:00,
2013-06-16 08:30:00,71.9,47.8,29.76,WNW,299,2.0,-999.0,33,-99.99,,,0.00,480.0,cwc,2013-06-16 14:30:00,
2013-06-16 08:35:00,72.4,48.3,29.76,WNW,299,0.0,-999.0,33,-99.99,,,0.00,496.0,cwc,2013-06-16 14:35:00,
2013-06-16 08:40:00,73.1,48.6,29.76,WNW,300,0.0,-999.0,32,-99.99,,,0.00,513.0,cwc,2013-06-16 14:40:00,
2013-06-16 08:45:00,74.0,49.2,29.76,WNW,299,0.0,-999.0,31,-99.99,,,0.00,531.0,cwc,2013-06-16 14:45:00,
2013-06-16 08:50:00,74.7,49.9,29.75,WNW,300,0.0,-999.0,31,-99.99,,,0.00,547.0,cwc,2013-06-16 14:50:00,
2013-06-16 08:55:00,75.3,50.1,29.75,NW,309,4.0,-999.0,30,-99.99,,,0.00,561.0,cwc,2013-06-16 14:55:00,
2013-06-16 09:00:00,75.7,50.1,29.75,NE,40,2.0,-999.0,29,-99.99,,,0.00,577.0,cwc,2013-06-16 15:00:00,
2013-06-16 09:05:00,76.0,50.4,29.75,NE,40,2.0,-999.0,29,-99.99,,,0.00,592.0,cwc,2013-06-16 15:05:00,
2013-06-16 09:10:00,76.2,50.6,29.74,NE,40,0.0,-999.0,29,-99.99,,,0.00,608.0,cwc,2013-06-16 15:10:00,
2013-06-16 09:15:00,76.6,51.0,29.74,NE,40,1.0,-999.0,29,-99.99,,,0.00,621.0,cwc,2013-06-16 15:15:00,
2013-06-16 09:20:00,77.2,51.3,29.74,NE,42,2.0,-999.0,28,-99.99,,,0.00,640.0,cwc,2013-06-16 15:20:00,
2013-06-16 09:25:00,77.8,51.5,29.73,NE,42,0.0,-999.0,27,-99.99,,,0.00,657.0,cwc,2013-06-16 15:25:00,
2013-06-16 09:30:00,78.4,52.1,29.73,NE,42,0.0,-999.0,27,-99.99,,,0.00,666.0,cwc,2013-06-16 15:30:00,
2013-06-16 09:40:00,78.5,51.9,29.73,South,179,4.0,-999.0,26,-99.99,,,0.00,693.0,cwc,2013-06-16 15:40:00,
2013-06-16 09:45:00,78.4,51.8,29.72,South,181,2.0,-999.0,26,-99.99,,,0.00,705.0,cwc,2013-06-16 15:45:00,
2013-06-16 09:50:00,78.7,52.1,29.72,SSE,165,3.0,-999.0,26,-99.99,,,0.00,721.0,cwc,2013-06-16 15:50:00,
2013-06-16 09:55:00,78.7,52.1,29.72,South,186,1.0,-999.0,26,-99.99,,,0.00,731.0,cwc,2013-06-16 15:55:00,
2013-06-16 10:00:00,79.3,52.3,29.72,South,188,2.0,-999.0,25,-99.99,,,0.00,751.0,cwc,2013-06-16 16:00:00,
2013-06-16 10:05:00,79.8,52.8,29.72,SSE,153,0.0,-999.0,25,-99.99,,,0.00,761.0,cwc,2013-06-16 16:05:00,
2013-06-16 10:10:00,80.5,53.5,29.71,SE,139,0.0,-999.0,25,-99.99,,,0.00,775.0,cwc,2013-06-16 16:10:00,
2013-06-16 10:15:00,81.1,53.7,29.71,SW,229,2.0,-999.0,24,-99.99,,,0.00,784.0,cwc,2013-06-16 16:15:00,
2013-06-16 10:20:00,80.9,53.5,29.71,South,173,5.0,-999.0,24,-99.99,,,0.00,802.0,cwc,2013-06-16 16:20:00,
2013-06-16 10:25:00,80.5,53.1,29.71,South,177,10.0,-999.0,24,-99.99,,,0.00,812.0,cwc,2013-06-16 16:25:00,
2013-06-16 10:30:00,80.2,52.8,29.71,SSE,166,9.0,-999.0,24,-99.99,,,0.00,824.0,cwc,2013-06-16 16:30:00,
2013-06-16 10:40:00,80.3,52.9,29.71,SSW,192,5.0,-999.0,24,-99.99,,,0.00,844.0,cwc,2013-06-16 16:40:00,
2013-06-16 10:45:00,80.4,53.0,29.71,South,188,8.0,-999.0,24,-99.99,,,0.00,856.0,cwc,2013-06-16 16:45:00,
2013-06-16 10:50:00,80.5,53.1,29.71,SE,138,6.0,-999.0,24,-99.99,,,0.00,865.0,cwc,2013-06-16 16:50:00,
2013-06-16 10:55:00,80.5,53.1,29.71,SW,215,6.0,-999.0,24,-99.99,,,0.00,875.0,cwc,2013-06-16 16:55:00,
2013-06-16 11:00:00,80.3,52.9,29.71,SSW,209,7.0,-999.0,24,-99.99,,,0.00,882.0,cwc,2013-06-16 17:00:00,
2013-06-16 11:05:00,80.6,53.2,29.70,SSE,157,6.0,-999.0,24,-99.99,,,0.00,895.0,cwc,2013-06-16 17:05:00,
2013-06-16 11:10:00,81.1,53.7,29.70,South,184,2.0,-999.0,24,-99.99,,,0.00,904.0,cwc,2013-06-16 17:10:00,
2013-06-16 11:15:00,81.4,54.0,29.70,West,271,0.0,-999.0,24,-99.99,,,0.00,912.0,cwc,2013-06-16 17:15:00,
2013-06-16 11:20:00,82.4,54.7,29.70,West,276,3.0,-999.0,23,-99.99,,,0.00,921.0,cwc,2013-06-16 17:20:00,
2013-06-16 11:25:00,83.2,55.1,29.70,ENE,57,2.0,-999.0,22,-99.99,,,0.00,932.0,cwc,2013-06-16 17:25:00,
2013-06-16 11:30:00,83.8,55.7,29.70,North,5,1.0,-999.0,22,-99.99,,,0.00,940.0,cwc,2013-06-16 17:30:00,
2013-06-16 11:35:00,84.3,56.2,29.70,South,186,16.0,-999.0,22,-99.99,,,0.00,949.0,cwc,2013-06-16 17:35:00,
2013-06-16 11:40:00,84.2,56.1,29.70,SW,229,5.0,-999.0,22,-99.99,,,0.00,893.0,cwc,2013-06-16 17:40:00,
2013-06-16 11:45:00,84.3,55.5,29.70,SW,232,0.0,-999.0,20,-99.99,,,0.00,969.0,cwc,2013-06-16 17:45:00,
2013-06-16 11:50:00,84.2,55.8,29.70,SW,221,6.0,-999.0,21,-99.99,,,0.00,969.0,cwc,2013-06-16 17:50:00,
2013-06-16 11:55:00,84.2,55.8,29.69,North,360,4.0,-999.0,21,-99.99,,,0.00,977.0,cwc,2013-06-16 17:55:00,
2013-06-16 12:00:00,84.8,56.0,29.69,North,355,2.0,-999.0,20,-99.99,,,0.00,1028.0,cwc,2013-06-16 18:00:00,
2013-06-16 12:05:00,85.5,56.7,29.69,South,182,3.0,-999.0,20,-99.99,,,0.00,954.0,cwc,2013-06-16 18:05:00,
2013-06-16 12:10:00,85.1,55.6,29.69,WSW,246,2.0,-999.0,18,-99.99,,,0.00,329.0,cwc,2013-06-16 18:10:00,
2013-06-16 12:15:00,85.2,56.4,29.69,SSW,209,12.0,-999.0,20,-99.99,,,0.00,1065.0,cwc,2013-06-16 18:15:00,
2013-06-16 12:20:00,85.3,56.5,29.68,SSW,194,7.0,-999.0,20,-99.99,,,0.00,1100.0,cwc,2013-06-16 18:20:00,
2013-06-16 12:25:00,84.5,55.7,29.68,SSW,200,10.0,-999.0,20,-99.99,,,0.00,250.0,cwc,2013-06-16 18:25:00,
2013-06-16 12:30:00,83.8,55.0,29.68,West,276,3.0,-999.0,20,-99.99,,,0.00,265.0,cwc,2013-06-16 18:30:00,
2013-06-16 12:35:00,83.6,54.8,29.69,SW,225,7.0,-999.0,20,-99.99,,,0.00,285.0,cwc,2013-06-16 18:35:00,
2013-06-16 12:40:00,83.4,55.0,29.68,SSW,202,7.0,-999.0,21,-99.99,,,0.00,260.0,cwc,2013-06-16 18:40:00,
2013-06-16 12:45:00,83.1,54.7,29.68,SSW,198,10.0,-999.0,21,-99.99,,,0.00,237.0,cwc,2013-06-16 18:45:00,
2013-06-16 12:55:00,82.3,54.2,29.68,SSW,197,4.0,-999.0,22,-99.99,,,0.00,207.0,cwc,2013-06-16 18:55:00,
2013-06-16 13:00:00,82.1,54.0,29.68,SW,235,8.0,-999.0,22,-99.99,,,0.00,234.0,cwc,2013-06-16 19:00:00,
2013-06-16 13:05:00,82.2,54.1,29.68,West,264,2.0,-999.0,22,-99.99,,,0.00,246.0,cwc,2013-06-16 19:05:00,
2013-06-16 13:10:00,82.8,54.7,29.67,South,175,5.0,-999.0,22,-99.99,,,0.00,1137.0,cwc,2013-06-16 19:10:00,
2013-06-16 13:15:00,83.6,55.2,29.67,SSE,167,1.0,-999.0,21,-99.99,,,0.00,671.0,cwc,2013-06-16 19:15:00,
2013-06-16 13:20:00,84.1,55.7,29.67,SSW,206,4.0,-999.0,21,-99.99,,,0.00,220.0,cwc,2013-06-16 19:20:00,
2013-06-16 13:25:00,84.2,55.0,29.67,SW,214,3.0,-999.0,19,-99.99,,,0.00,165.0,cwc,2013-06-16 19:25:00,
2013-06-16 13:30:00,83.7,54.2,29.67,WSW,249,3.0,-999.0,18,-99.99,,,0.00,183.0,cwc,2013-06-16 19:30:00,
2013-06-16 13:40:00,83.5,54.7,29.66,SSW,213,7.0,-999.0,20,-99.99,,,0.00,320.0,cwc,2013-06-16 19:40:00,
2013-06-16 13:45:00,84.0,55.6,29.66,NW,311,0.0,-999.0,21,-99.99,,,0.00,1063.0,cwc,2013-06-16 19:45:00,
2013-06-16 13:50:00,84.9,56.1,29.65,SW,232,2.0,-999.0,20,-99.99,,,0.00,1046.0,cwc,2013-06-16 19:50:00,
2013-06-16 13:55:00,85.8,57.0,29.65,South,169,1.0,-999.0,20,-99.99,,,0.00,1035.0,cwc,2013-06-16 19:55:00,
2013-06-16 14:00:00,86.2,57.0,29.65,SSW,209,3.0,-999.0,19,-99.99,,,0.00,1048.0,cwc,2013-06-16 20:00:00,
2013-06-16 14:05:00,85.7,56.9,29.65,SSW,194,7.0,-999.0,20,-99.99,,,0.00,1067.0,cwc,2013-06-16 20:05:00,
2013-06-16 14:10:00,85.2,56.4,29.65,SW,215,4.0,-999.0,20,-99.99,,,0.00,318.0,cwc,2013-06-16 20:10:00,
2013-06-16 14:15:00,84.8,56.0,29.65,SSW,194,8.0,-999.0,20,-99.99,,,0.00,1069.0,cwc,2013-06-16 20:15:00,
2013-06-16 14:20:00,85.3,56.5,29.65,South,180,7.0,-999.0,20,-99.99,,,0.00,1018.0,cwc,2013-06-16 20:20:00,
2013-06-16 14:25:00,85.4,56.2,29.65,SSE,167,13.0,-999.0,19,-99.99,,,0.00,995.0,cwc,2013-06-16 20:25:00,
2013-06-16 14:30:00,86.0,56.5,29.65,South,173,9.0,-999.0,18,-99.99,,,0.00,997.0,cwc,2013-06-16 20:30:00,
2013-06-16 14:35:00,86.4,56.9,29.64,SSE,150,5.0,-999.0,18,-99.99,,,0.00,1013.0,cwc,2013-06-16 20:35:00,
2013-06-16 14:40:00,86.5,57.0,29.64,ESE,123,3.0,-999.0,18,-99.99,,,0.00,1021.0,cwc,2013-06-16 20:40:00,
2013-06-16 14:45:00,87.0,57.5,29.63,East,88,0.0,-999.0,18,-99.99,,,0.00,972.0,cwc,2013-06-16 20:45:00,
2013-06-16 14:50:00,87.4,57.5,29.63,ESE,106,0.0,-999.0,17,-99.99,,,0.00,954.0,cwc,2013-06-16 20:50:00,
2013-06-16 14:55:00,87.6,57.7,29.63,ESE,106,0.0,-999.0,17,-99.99,,,0.00,958.0,cwc,2013-06-16 20:55:00,
2013-06-16 15:00:00,87.6,57.7,29.62,ENE,75,2.0,-999.0,17,-99.99,,,0.00,137.0,cwc,2013-06-16 21:00:00,
2013-06-16 15:10:00,86.6,57.4,29.62,East,86,2.0,-999.0,19,-99.99,,,0.00,1014.0,cwc,2013-06-16 21:10:00,
2013-06-16 15:15:00,86.9,57.4,29.62,North,360,1.0,-999.0,18,-99.99,,,0.00,974.0,cwc,2013-06-16 21:15:00,
2013-06-16 15:20:00,87.3,57.8,29.61,North,10,3.0,-999.0,18,-99.99,,,0.00,912.0,cwc,2013-06-16 21:20:00,
2013-06-16 15:25:00,87.8,58.3,29.61,NNE,12,5.0,-999.0,18,-99.99,,,0.00,909.0,cwc,2013-06-16 21:25:00,
2013-06-16 15:30:00,88.1,58.6,29.61,NW,311,2.0,-999.0,18,-99.99,,,0.00,914.0,cwc,2013-06-16 21:30:00,
2013-06-16 15:35:00,88.9,59.4,29.61,SE,130,3.0,-999.0,18,-99.99,,,0.00,703.0,cwc,2013-06-16 21:35:00,
2013-06-16 15:40:00,89.8,59.9,29.61,SE,130,1.0,-999.0,17,-99.99,,,0.00,865.0,cwc,2013-06-16 21:40:00,
2013-06-16 15:45:00,90.5,60.3,29.61,SW,234,6.0,-999.0,16,-99.99,,,0.00,807.0,cwc,2013-06-16 21:45:00,
2013-06-16 15:50:00,90.0,59.8,29.60,NE,36,0.0,-999.0,16,-99.99,,,0.00,462.0,cwc,2013-06-16 21:50:00,
2013-06-16 15:55:00,89.1,58.9,29.60,SW,225,4.0,-999.0,16,-99.99,,,0.00,689.0,cwc,2013-06-16 21:55:00,
2013-06-16 16:00:00,88.7,58.8,29.60,SSW,196,12.0,-999.0,17,-99.99,,,0.00,793.0,cwc,2013-06-16 22:00:00,
2013-06-16 16:05:00,88.7,58.8,29.61,South,182,8.0,-999.0,17,-99.99,,,0.00,803.0,cwc,2013-06-16 22:05:00,
2013-06-16 16:15:00,88.5,58.6,29.60,SSE,160,4.0,-999.0,17,-99.99,,,0.00,821.0,cwc,2013-06-16 22:15:00,
2013-06-16 16:20:00,88.1,58.6,29.60,SSE,153,8.0,-999.0,18,-99.99,,,0.00,819.0,cwc,2013-06-16 22:20:00,
2013-06-16 16:25:00,87.8,58.3,29.60,South,173,13.0,-999.0,18,-99.99,,,0.00,752.0,cwc,2013-06-16 22:25:00,
2013-06-16 16:30:00,87.3,57.8,29.59,SSE,160,2.0,-999.0,18,-99.99,,,0.00,172.0,cwc,2013-06-16 22:30:00,
2013-06-16 16:35:00,86.8,57.3,29.59,SE,125,9.0,-999.0,18,-99.99,,,0.00,244.0,cwc,2013-06-16 22:35:00,
2013-06-16 16:40:00,86.8,57.3,29.59,SSW,196,11.0,-999.0,18,-99.99,,,0.00,758.0,cwc,2013-06-16 22:40:00,
2013-06-16 16:45:00,87.6,57.7,29.59,SSW,205,9.0,-999.0,17,-99.99,,,0.00,803.0,cwc,2013-06-16 22:45:00,
2013-06-16 16:50:00,88.1,57.9,29.60,SSW,210,7.0,-999.0,16,-99.99,,,0.00,738.0,cwc,2013-06-16 22:50:00,
2013-06-16 16:55:00,88.4,58.2,29.59,South,188,11.0,-999.0,16,-99.99,,,0.00,705.0,cwc,2013-06-16 22:55:00,
2013-06-16 17:00:00,88.6,58.4,29.59,SSW,200,4.0,-999.0,16,-99.99,,,0.00,647.0,cwc,2013-06-16 23:00:00,
2013-06-16 17:05:00,88.9,58.7,29.59,SSW,195,6.0,-999.0,16,-99.99,,,0.00,610.0,cwc,2013-06-16 23:05:00,
2013-06-16 17:10:00,88.9,58.7,29.59,South,182,5.0,-999.0,16,-99.99,,,0.00,589.0,cwc,2013-06-16 23:10:00,
2013-06-16 17:15:00,88.9,58.7,29.58,North,9,2.0,-999.0,16,-99.99,,,0.00,575.0,cwc,2013-06-16 23:15:00,
2013-06-16 17:20:00,89.1,58.5,29.58,South,179,4.0,-999.0,15,-99.99,,,0.00,563.0,cwc,2013-06-16 23:20:00,
2013-06-16 17:25:00,89.2,58.6,29.58,SSW,213,4.0,-999.0,15,-99.99,,,0.00,566.0,cwc,2013-06-16 23:25:00,
2013-06-16 17:30:00,89.5,58.5,29.58,South,178,4.0,-999.0,14,-99.99,,,0.00,564.0,cwc,2013-06-16 23:30:00,
2013-06-16 17:35:00,89.6,59.0,29.58,NW,321,0.0,-999.0,15,-99.99,,,0.00,552.0,cwc,2013-06-16 23:35:00,
2013-06-16 17:40:00,89.8,58.8,29.58,SW,217,7.0,-999.0,14,-99.99,,,0.00,552.0,cwc,2013-06-16 23:40:00,
2013-06-16 17:45:00,89.9,59.3,29.58,SW,217,0.0,-999.0,15,-99.99,,,0.00,387.0,cwc,2013-06-16 23:45:00,
2013-06-16 17:50:00,89.6,58.6,29.58,SSW,205,9.0,-999.0,14,-99.99,,,0.00,114.0,cwc,2013-06-16 23:50:00,
2013-06-16 17:55:00,88.7,58.1,29.58,WNW,289,3.0,-999.0,15,-99.99,,,0.00,155.0,cwc,2013-06-16 23:55:00,
2013-06-16 18:00:00,88.2,57.6,29.57,SW,227,2.0,-999.0,15,-99.99,,,0.00,473.0,cwc,2013-06-17 00:00:00,
2013-06-16 18:05:00,87.8,57.2,29.57,SW,227,2.0,-999.0,15,-99.99,,,0.00,141.0,cwc,2013-06-17 00:05:00,
2013-06-16 18:10:00,87.6,57.0,29.57,WSW,238,1.0,-999.0,15,-99.99,,,0.00,135.0,cwc,2013-06-17 00:10:00,
2013-06-16 18:15:00,87.4,56.8,29.57,SW,236,1.0,-999.0,15,-99.99,,,0.00,121.0,cwc,2013-06-17 00:15:00,
2013-06-16 18:20:00,87.4,56.8,29.57,WSW,240,2.0,-999.0,15,-99.99,,,0.00,355.0,cwc,2013-06-17 00:20:00,
2013-06-16 18:25:00,87.6,57.0,29.57,SW,223,4.0,-999.0,15,-99.99,,,0.00,155.0,cwc,2013-06-17 00:25:00,
2013-06-16 18:30:00,87.8,57.2,29.57,SW,224,0.0,-999.0,15,-99.99,,,0.00,149.0,cwc,2013-06-17 00:30:00,
2013-06-16 18:35:00,87.9,56.9,29.57,West,261,5.0,-999.0,14,-99.99,,,0.00,97.0,cwc,2013-06-17 00:35:00,
2013-06-16 18:40:00,87.6,56.6,29.57,SW,233,2.0,-999.0,14,-99.99,,,0.00,79.0,cwc,2013-06-17 00:40:00,
2013-06-16 18:45:00,87.4,56.4,29.57,SW,215,7.0,-999.0,14,-99.99,,,0.00,72.0,cwc,2013-06-17 00:45:00,
2013-06-16 18:50:00,87.1,56.1,29.57,SSW,209,4.0,-999.0,14,-99.99,,,0.00,58.0,cwc,2013-06-17 00:50:00,
2013-06-16 18:55:00,87.1,56.1,29.57,SW,232,3.0,-999.0,14,-99.99,,,0.00,49.0,cwc,2013-06-17 00:55:00,
2013-06-16 19:00:00,87.1,56.1,29.58,SSW,193,11.0,-999.0,14,-99.99,,,0.00,37.0,cwc,2013-06-17 01:00:00,
2013-06-16 19:05:00,86.3,56.4,29.59,SSW,209,21.0,-999.0,17,-99.99,,,0.00,32.0,cwc,2013-06-17 01:05:00,
2013-06-16 19:10:00,84.7,55.5,29.59,SW,215,15.0,-999.0,19,-99.99,,,0.00,35.0,cwc,2013-06-17 01:10:00,
2013-06-16 19:15:00,83.7,54.9,29.59,SSW,210,15.0,-999.0,20,-99.99,,,0.00,33.0,cwc,2013-06-17 01:15:00,
2013-06-16 19:20:00,83.0,54.2,29.60,SSW,196,7.0,-999.0,20,-99.99,,,0.00,28.0,cwc,2013-06-17 01:20:00,
2013-06-16 19:25:00,82.7,53.9,29.61,SSW,206,17.0,-999.0,20,-99.99,,,0.00,21.0,cwc,2013-06-17 01:25:00,
2013-06-16 19:30:00,82.6,53.8,29.61,SSW,192,3.0,-999.0,20,-99.99,,,0.00,19.0,cwc,2013-06-17 01:30:00,
2013-06-16 19:35:00,82.4,53.6,29.61,SSE,157,16.0,-999.0,20,-99.99,,,0.00,21.0,cwc,2013-06-17 01:35:00,
2013-06-16 19:40:00,82.4,53.2,29.60,SSW,200,17.0,-999.0,19,-99.99,,,0.00,19.0,cwc,2013-06-17 01:40:00,
2013-06-16 19:45:00,82.3,53.5,29.61,SSE,165,9.0,-999.0,20,-99.99,,,0.00,11.0,cwc,2013-06-17 01:45:00,
2013-06-16 19:50:00,82.0,53.6,29.62,SE,144,3.0,-999.0,21,-99.99,,,0.00,7.0,cwc,2013-06-17 01:50:00,
2013-06-16 19:55:00,81.7,53.3,29.62,SSE,152,3.0,-999.0,21,-99.99,,,0.00,5.0,cwc,2013-06-17 01:55:00,
2013-06-16 20:00:00,81.5,53.1,29.63,South,182,8.0,-999.0,21,-99.99,,,0.00,5.0,cwc,2013-06-17 02:00:00,
2013-06-16 20:05:00,81.3,53.2,29.63,ESE,123,4.0,-999.0,22,-99.99,,,0.00,0.0,cwc,2013-06-17 02:05:00,
2013-06-16 20:10:00,81.3,52.9,29.63,SSE,157,4.0,-999.0,21,-99.99,,,0.00,0.0,cwc,2013-06-17 02:10:00,
2013-06-16 20:15:00,81.4,52.6,29.63,South,175,4.0,-999.0,20,-99.99,,,0.00,0.0,cwc,2013-06-17 02:15:00,
2013-06-16 20:20:00,81.6,52.8,29.64,SSW,213,6.0,-999.0,20,-99.99,,,0.00,0.0,cwc,2013-06-17 02:20:00,
2013-06-16 20:25:00,81.7,52.9,29.63,SSW,212,4.0,-999.0,20,-99.99,,,0.00,0.0,cwc,2013-06-17 02:25:00,
2013-06-16 20:30:00,81.8,53.0,29.64,SSW,211,0.0,-999.0,20,-99.99,,,0.00,0.0,cwc,2013-06-17 02:30:00,
2013-06-16 20:40:00,81.7,52.9,29.64,NE,53,9.0,-999.0,20,-99.99,,,0.00,0.0,cwc,2013-06-17 02:40:00,
2013-06-16 20:45:00,80.7,52.6,29.65,NNW,348,8.0,-999.0,22,-99.99,,,0.00,0.0,cwc,2013-06-17 02:45:00,
2013-06-16 20:50:00,79.7,51.6,29.66,NNE,19,8.0,-999.0,22,-99.99,,,0.00,0.0,cwc,2013-06-17 02:50:00,
2013-06-16 20:55:00,78.8,51.1,29.66,North,360,5.0,-999.0,23,-99.99,,,0.00,0.0,cwc,2013-06-17 02:55:00,
2013-06-16 21:00:00,78.4,51.0,29.66,North,5,2.0,-999.0,24,-99.99,,,0.00,0.0,cwc,2013-06-17 03:00:00,
2013-06-16 21:05:00,77.8,50.4,29.67,NNE,13,0.0,-999.0,24,-99.99,,,0.00,0.0,cwc,2013-06-17 03:05:00,
2013-06-16 21:10:00,77.6,50.2,29.67,WNW,302,1.0,-999.0,24,-99.99,,,0.00,0.0,cwc,2013-06-17 03:10:00,
2013-06-16 21:15:00,77.3,49.9,29.68,WSW,252,2.0,-999.0,24,-99.99,,,0.00,0.0,cwc,2013-06-17 03:15:00,
2013-06-16 21:20:00,77.1,49.7,29.69,NNW,336,3.0,-999.0,24,-99.99,,,0.00,0.0,cwc,2013-06-17 03:20:00,
2013-06-16 21:25:00,77.0,50.0,29.68,North,360,1.0,-999.0,25,-99.99,,,0.00,0.0,cwc,2013-06-17 03:25:00,
2013-06-16 21:35:00,76.8,49.8,29.68,NNE,13,1.0,-999.0,25,-99.99,,,0.00,0.0,cwc,2013-06-17 03:35:00,
2013-06-16 21:40:00,76.6,49.6,29.69,NNE,13,0.0,-999.0,25,-99.99,,,0.00,0.0,cwc,2013-06-17 03:40:00,
2013-06-16 21:45:00,76.5,49.5,29.69,NNE,18,0.0,-999.0,25,-99.99,,,0.00,0.0,cwc,2013-06-17 03:45:00,
2013-06-16 21:50:00,76.3,49.7,29.69,NNE,18,0.0,-999.0,26,-99.99,,,0.00,0.0,cwc,2013-06-17 03:50:00,
2013-06-16 21:55:00,76.1,49.5,29.68,NNE,18,1.0,-999.0,26,-99.99,,,0.00,0.0,cwc,2013-06-17 03:55:00,
2013-06-16 22:00:00,76.0,49.4,29.68,North,360,3.0,-999.0,26,-99.99,,,0.00,0.0,cwc,2013-06-17 04:00:00,
2013-06-16 22:05:00,75.8,49.2,29.68,North,360,5.0,-999.0,26,-99.99,,,0.00,0.0,cwc,2013-06-17 04:05:00,
2013-06-16 22:10:00,75.6,49.0,29.68,North,360,1.0,-999.0,26,-99.99,,,0.00,0.0,cwc,2013-06-17 04:10:00,
2013-06-16 22:15:00,75.5,48.9,29.68,North,355,0.0,-999.0,26,-99.99,,,0.00,0.0,cwc,2013-06-17 04:15:00,
2013-06-16 22:20:00,75.4,48.8,29.68,North,355,2.0,-999.0,26,-99.99,,,0.00,0.0,cwc,2013-06-17 04:20:00,
2013-06-16 22:25:00,75.1,48.5,29.68,North,355,2.0,-999.0,26,-99.99,,,0.00,0.0,cwc,2013-06-17 04:25:00,
2013-06-16 22:30:00,74.3,48.0,29.68,North,355,2.0,-999.0,27,-99.99,,,0.00,0.0,cwc,2013-06-17 04:30:00,
2013-06-16 22:35:00,73.3,47.4,29.68,NNW,340,4.0,-999.0,28,-99.99,,,0.00,0.0,cwc,2013-06-17 04:35:00,
2013-06-16 22:40:00,72.5,46.6,29.68,NNW,340,3.0,-999.0,28,-99.99,,,0.00,0.0,cwc,2013-06-17 04:40:00,
2013-06-16 22:45:00,71.9,46.0,29.68,NNW,340,1.0,-999.0,28,-99.99,,,0.00,0.0,cwc,2013-06-17 04:45:00,
2013-06-16 22:50:00,71.3,45.7,29.68,NNW,340,1.0,-999.0,29,-99.99,,,0.00,0.0,cwc,2013-06-17 04:50:00,
2013-06-16 22:55:00,70.7,45.1,29.68,NNW,340,0.0,-999.0,29,-99.99,,,0.00,0.0,cwc,2013-06-17 04:55:00,
2013-06-16 23:00:00,69.9,44.3,29.68,NNW,340,3.0,-999.0,29,-99.99,,,0.00,0.0,cwc,2013-06-17 05:00:00,
2013-06-16 23:05:00,69.0,43.8,29.68,NNW,337,2.0,-999.0,30,-99.99,,,0.00,0.0,cwc,2013-06-17 05:05:00,
2013-06-16 23:10:00,68.5,43.3,29.68,NNW,337,1.0,-999.0,30,-99.99,,,0.00,0.0,cwc,2013-06-17 05:10:00,
2013-06-16 23:15:00,68.2,43.0,29.68,NNW,337,2.0,-999.0,30,-99.99,,,0.00,0.0,cwc,2013-06-17 05:15:00,
2013-06-16 23:20:00,67.9,42.7,29.68,NNW,337,0.0,-999.0,30,-99.99,,,0.00,0.0,cwc,2013-06-17 05:20:00,
2013-06-16 23:25:00,67.6,42.8,29.68,NNW,337,0.0,-999.0,31,-99.99,,,0.00,0.0,cwc,2013-06-17 05:25:00,
2013-06-16 23:30:00,67.2,42.4,29.68,NNW,337,0.0,-999.0,31,-99.99,,,0.00,0.0,cwc,2013-06-17 05:30:00,
2013-06-16 23:35:00,66.8,42.3,29.68,NNW,337,0.0,-999.0,32,-99.99,,,0.00,0.0,cwc,2013-06-17 05:35:00,
2013-06-16 23:40:00,66.3,41.8,29.68,NNW,337,0.0,-999.0,32,-99.99,,,0.00,0.0,cwc,2013-06-17 05:40:00,
2013-06-16 23:45:00,65.6,41.5,29.68,NNW,337,1.0,-999.0,33,-99.99,,,0.00,0.0,cwc,2013-06-17 05:45:00,
2013-06-16 23:50:00,65.1,41.3,29.69,NNW,337,0.0,-999.0,34,-99.99,,,0.00,0.0,cwc,2013-06-17 05:50:00,